createdAt,value
2023-03-17T00:01:44.563Z,-1.77
2023-03-17T00:04:12.661Z,-1.80
2023-03-17T00:06:41.326Z,-1.81
2023-03-17T00:09:14.640Z,-1.81
2023-03-17T00:11:42.787Z,-1.80
2023-03-17T00:14:11.177Z,-1.77
2023-03-17T00:16:43.670Z,-1.75
2023-03-17T00:19:32.113Z,-1.73
2023-03-17T00:22:00.939Z,-1.66
2023-03-17T00:24:29.303Z,-1.56
2023-03-17T00:26:57.242Z,-1.48
2023-03-17T00:29:25.443Z,-1.45
2023-03-17T00:31:53.494Z,-1.39
2023-03-17T00:34:23.284Z,-1.26
2023-03-17T00:36:51.158Z,-1.16
2023-03-17T00:39:19.249Z,-1.09
2023-03-17T00:44:14.981Z,-1.05
2023-03-17T00:46:42.762Z,-1.04
2023-03-17T00:49:15.595Z,-1.05
2023-03-17T00:51:44.700Z,-1.03
2023-03-17T00:54:13.515Z,-1.01
2023-03-17T00:56:42.215Z,-1.01
2023-03-17T00:59:21.783Z,-1.05
2023-03-17T01:01:49.844Z,-1.09
2023-03-17T01:04:18.493Z,-1.11
2023-03-17T01:06:48.125Z,-1.14
2023-03-17T01:09:16.796Z,-1.20
2023-03-17T01:11:44.602Z,-1.26
2023-03-17T01:14:12.867Z,-1.29
2023-03-17T01:16:40.685Z,-1.34
2023-03-17T01:19:09.390Z,-1.38
2023-03-17T01:21:37.579Z,-1.41
2023-03-17T01:24:05.759Z,-1.45
2023-03-17T01:26:33.445Z,-1.52
2023-03-17T01:29:01.077Z,-1.56
2023-03-17T01:31:29.486Z,-1.58
2023-03-17T01:33:57.825Z,-1.59
2023-03-17T01:36:25.535Z,-1.60
2023-03-17T01:38:53.693Z,-1.62
2023-03-17T01:41:21.406Z,-1.65
2023-03-17T01:43:49.837Z,-1.68
2023-03-17T01:46:17.705Z,-1.69
2023-03-17T01:48:47.941Z,-1.67
2023-03-17T01:51:18.533Z,-1.65
2023-03-17T01:53:48.159Z,-1.62
2023-03-17T01:56:16.860Z,-1.55
2023-03-17T01:58:46.555Z,-1.46
2023-03-17T02:01:14.346Z,-1.39
2023-03-17T02:03:42.475Z,-1.31
2023-03-17T02:06:10.083Z,-1.23
2023-03-17T02:08:37.686Z,-1.13
2023-03-17T02:11:06.810Z,-1.04
2023-03-17T02:13:34.889Z,-1.00
2023-03-17T02:16:02.546Z,-0.95
2023-03-17T02:18:30.242Z,-0.90
2023-03-17T02:20:58.887Z,-0.88
2023-03-17T02:23:26.470Z,-0.89
2023-03-17T02:25:54.093Z,-0.91
2023-03-17T02:28:25.919Z,-0.94
2023-03-17T02:30:53.625Z,-0.99
2023-03-17T02:33:21.384Z,-1.02
2023-03-17T02:35:49.135Z,-1.05
2023-03-17T02:38:17.347Z,-1.05
2023-03-17T02:40:45.222Z,-1.04
2023-03-17T02:43:13.088Z,-1.04
2023-03-17T02:45:41.582Z,-1.05
2023-03-17T02:48:13.121Z,-1.03
2023-03-17T02:50:40.728Z,-1.01
2023-03-17T02:53:08.388Z,-1.01
2023-03-17T02:55:36.152Z,-1.02
2023-03-17T02:58:04.210Z,-1.04
2023-03-17T03:00:32.706Z,-1.06
2023-03-17T03:03:00.760Z,-1.08
2023-03-17T03:05:28.840Z,-1.11
2023-03-17T03:07:56.489Z,-1.15
2023-03-17T03:10:24.168Z,-1.18
2023-03-17T03:12:52.018Z,-1.24
2023-03-17T03:15:20.805Z,-1.32
2023-03-17T03:17:48.511Z,-1.35
2023-03-17T03:20:16.610Z,-1.35
2023-03-17T03:22:44.286Z,-1.35
2023-03-17T03:25:12.474Z,-1.32
2023-03-17T03:27:40.097Z,-1.29
2023-03-17T03:30:10.598Z,-1.23
2023-03-17T03:32:38.344Z,-1.18
2023-03-17T03:35:06.461Z,-1.11
2023-03-17T03:37:34.138Z,-1.05
2023-03-17T03:40:02.132Z,-1.00
2023-03-17T03:42:29.806Z,-0.94
2023-03-17T03:44:57.471Z,-0.87
2023-03-17T03:47:25.168Z,-0.83
2023-03-17T03:49:52.745Z,-0.78
2023-03-17T03:52:20.904Z,-0.74
2023-03-17T03:54:48.608Z,-0.76
2023-03-17T03:57:16.301Z,-0.78
2023-03-17T03:59:44.000Z,-0.79
2023-03-17T04:02:11.610Z,-0.80
2023-03-17T04:04:39.338Z,-0.83
2023-03-17T04:07:08.176Z,-0.86
2023-03-17T04:09:36.380Z,-0.88
2023-03-17T04:12:05.969Z,-0.87
2023-03-17T04:14:33.824Z,-0.85
2023-03-17T04:17:01.682Z,-0.82
2023-03-17T04:19:29.365Z,-0.76
2023-03-17T04:21:56.949Z,-0.71
2023-03-17T04:24:25.104Z,-0.64
2023-03-17T04:26:53.163Z,-0.54
2023-03-17T04:29:20.826Z,-0.46
2023-03-17T04:31:48.522Z,-0.41
2023-03-17T04:34:18.685Z,-0.38
2023-03-17T04:36:47.342Z,-0.33
2023-03-17T04:39:15.687Z,-0.32
2023-03-17T04:41:43.382Z,-0.34
2023-03-17T04:44:10.996Z,-0.36
2023-03-17T04:46:38.641Z,-0.34
2023-03-17T04:49:06.947Z,-0.31
2023-03-17T04:51:36.812Z,-0.30
2023-03-17T04:54:05.440Z,-0.29
2023-03-17T04:56:33.093Z,-0.28
2023-03-17T04:59:00.731Z,-0.33
2023-03-17T05:01:28.412Z,-0.35
2023-03-17T05:03:56.333Z,-0.33
2023-03-17T05:06:24.219Z,-0.29
2023-03-17T05:08:52.852Z,-0.29
2023-03-17T05:11:20.486Z,-0.29
2023-03-17T05:13:48.318Z,-0.29
2023-03-17T05:16:16.367Z,-0.25
2023-03-17T05:18:44.744Z,-0.21
2023-03-17T05:21:12.481Z,-0.18
2023-03-17T05:23:40.884Z,-0.13
2023-03-17T05:26:08.682Z,-0.08
2023-03-17T05:28:36.431Z,-0.07
2023-03-17T05:31:04.199Z,-0.07
2023-03-17T05:33:31.898Z,-0.07
2023-03-17T05:35:59.587Z,-0.10
2023-03-17T05:38:27.572Z,-0.13
2023-03-17T05:40:55.450Z,-0.17
2023-03-17T05:43:23.303Z,-0.19
2023-03-17T05:45:50.993Z,-0.20
2023-03-17T05:48:18.685Z,-0.19
2023-03-17T05:50:46.335Z,-0.14
2023-03-17T05:53:14.107Z,-0.09
2023-03-17T05:55:42.240Z,-0.04
2023-03-17T05:58:09.875Z,0.03
2023-03-17T06:00:37.676Z,0.09
2023-03-17T06:03:05.542Z,0.19
2023-03-17T06:05:33.883Z,0.25
2023-03-17T06:08:01.894Z,0.28
2023-03-17T06:10:29.816Z,0.34
2023-03-17T06:12:58.864Z,0.39
2023-03-17T06:15:26.821Z,0.43
2023-03-17T06:17:54.604Z,0.46
2023-03-17T06:20:22.349Z,0.50
2023-03-17T06:23:03.267Z,0.54
2023-03-17T06:25:32.719Z,0.58
2023-03-17T06:28:02.873Z,0.63
2023-03-17T06:30:34.572Z,0.67
2023-03-17T06:33:02.931Z,0.72
2023-03-17T06:35:31.721Z,0.78
2023-03-17T06:38:00.723Z,0.83
2023-03-17T06:40:28.745Z,0.86
2023-03-17T06:42:56.520Z,0.87
2023-03-17T06:45:24.372Z,0.88
2023-03-17T06:47:52.444Z,0.92
2023-03-17T06:50:20.270Z,0.96
2023-03-17T06:52:49.120Z,1.03
2023-03-17T06:55:17.511Z,1.09
2023-03-17T06:57:45.761Z,1.14
2023-03-17T07:00:14.230Z,1.19
2023-03-17T07:02:43.116Z,1.27
2023-03-17T07:05:12.566Z,1.32
2023-03-17T07:07:40.940Z,1.37
2023-03-17T07:10:10.366Z,1.43
2023-03-17T07:12:39.719Z,1.50
2023-03-17T07:15:07.731Z,1.54
2023-03-17T07:17:35.473Z,1.57
2023-03-17T07:20:03.708Z,1.61
2023-03-17T07:22:31.841Z,1.70
2023-03-17T07:25:00.666Z,1.77
2023-03-17T07:27:31.114Z,1.81
2023-03-17T07:30:02.226Z,1.84
2023-03-17T07:32:30.677Z,1.94
2023-03-17T07:34:59.619Z,2.04
2023-03-17T07:37:27.355Z,2.14
2023-03-17T07:39:56.024Z,2.22
2023-03-17T07:42:23.712Z,2.30
2023-03-17T07:44:51.450Z,2.29
2023-03-17T07:47:19.123Z,2.29
2023-03-17T07:49:47.484Z,2.35
2023-03-17T07:52:15.226Z,2.42
2023-03-17T07:54:43.389Z,2.48
2023-03-17T07:57:12.518Z,2.55
2023-03-17T07:59:41.532Z,2.63
2023-03-17T08:02:13.967Z,2.71
2023-03-17T08:04:43.412Z,2.82
2023-03-17T08:07:11.372Z,2.92
2023-03-17T08:09:40.822Z,3.00
2023-03-17T08:12:11.874Z,3.07
2023-03-17T08:14:43.965Z,3.18
2023-03-17T08:17:13.456Z,3.27
2023-03-17T08:19:41.184Z,3.33
2023-03-17T08:22:09.550Z,3.38
2023-03-17T08:24:38.333Z,3.41
2023-03-17T08:27:05.964Z,3.43
2023-03-17T08:29:33.664Z,3.46
2023-03-17T08:32:01.712Z,3.50
2023-03-17T08:34:29.886Z,3.50
2023-03-17T08:36:57.957Z,3.49
2023-03-17T08:39:25.613Z,3.50
2023-03-17T08:41:53.519Z,3.50
2023-03-17T08:44:21.755Z,3.53
2023-03-17T08:46:50.107Z,3.60
2023-03-17T08:49:18.105Z,3.69
2023-03-17T08:51:46.184Z,3.83
2023-03-17T08:54:13.977Z,3.93
2023-03-17T08:56:42.436Z,4.02
2023-03-17T08:59:10.316Z,4.14
2023-03-17T09:01:40.131Z,4.27
2023-03-17T09:04:08.814Z,4.41
2023-03-17T09:06:37.605Z,4.56
2023-03-17T09:09:05.332Z,4.74
2023-03-17T09:11:33.267Z,4.89
2023-03-17T09:14:00.878Z,5.02
2023-03-17T09:16:30.027Z,5.13
2023-03-17T09:18:57.678Z,5.24
2023-03-17T09:21:25.347Z,5.31
2023-03-17T09:23:52.941Z,5.39
2023-03-17T09:26:20.726Z,5.51
2023-03-17T09:28:49.427Z,5.62
2023-03-17T09:31:17.150Z,5.65
2023-03-17T09:33:45.528Z,5.65
2023-03-17T09:36:14.785Z,5.71
2023-03-17T09:38:42.742Z,5.79
2023-03-17T09:41:20.045Z,5.84
2023-03-17T09:44:01.882Z,5.92
2023-03-17T09:46:46.160Z,6.02
2023-03-17T09:49:20.529Z,6.13
2023-03-17T09:51:49.418Z,6.27
2023-03-17T09:54:20.402Z,6.37
2023-03-17T09:56:50.658Z,6.45
2023-03-17T09:59:27.845Z,6.54
2023-03-17T10:01:56.068Z,6.56
2023-03-17T10:04:24.208Z,6.62
2023-03-17T10:06:52.682Z,6.68
2023-03-17T10:09:27.192Z,6.78
2023-03-17T10:12:11.996Z,6.84
2023-03-17T10:14:46.205Z,6.90
2023-03-17T10:17:16.628Z,6.95
2023-03-17T10:19:44.286Z,6.99
2023-03-17T10:22:12.056Z,7.01
2023-03-17T10:24:43.358Z,7.08
2023-03-17T10:27:12.916Z,7.13
2023-03-17T10:29:41.570Z,7.17
2023-03-17T10:32:13.511Z,7.21
2023-03-17T10:34:47.063Z,7.24
2023-03-17T10:37:18.066Z,7.27
2023-03-17T10:39:49.643Z,7.30
2023-03-17T10:42:35.510Z,7.39
2023-03-17T10:45:20.749Z,7.48
2023-03-17T10:47:50.206Z,7.63
2023-03-17T10:50:23.089Z,7.77
2023-03-17T10:52:57.802Z,7.83
2023-03-17T10:55:28.080Z,7.90
2023-03-17T10:58:01.059Z,7.91
2023-03-17T11:00:30.204Z,7.91
2023-03-17T11:02:59.366Z,7.97
2023-03-17T11:05:29.090Z,8.05
2023-03-17T11:07:58.547Z,8.09
2023-03-17T11:10:27.360Z,8.14
2023-03-17T11:13:04.494Z,8.17
2023-03-17T11:15:33.815Z,8.18
2023-03-17T11:18:03.205Z,8.21
2023-03-17T11:20:46.860Z,8.32
2023-03-17T11:23:23.519Z,8.44
2023-03-17T11:25:58.103Z,8.52
2023-03-17T11:28:28.490Z,8.59
2023-03-17T11:31:15.108Z,8.58
2023-03-17T11:33:49.555Z,8.54
2023-03-17T11:36:19.988Z,8.52
2023-03-17T11:39:07.070Z,8.59
2023-03-17T11:41:41.154Z,8.72
2023-03-17T11:44:24.682Z,8.80
2023-03-17T11:47:00.448Z,8.83
2023-03-17T11:49:32.341Z,8.90
2023-03-17T11:52:16.412Z,9.02
2023-03-17T11:54:44.567Z,9.14
2023-03-17T11:57:35.699Z,9.13
2023-03-17T12:00:07.134Z,9.14
2023-03-17T12:02:43.542Z,9.19
2023-03-17T12:05:15.402Z,9.21
2023-03-17T12:07:59.047Z,9.22
2023-03-17T12:10:43.739Z,9.24
2023-03-17T12:13:35.514Z,9.31
2023-03-17T12:16:06.813Z,9.37
2023-03-17T12:18:39.032Z,9.40
2023-03-17T12:21:14.946Z,9.44
2023-03-17T12:24:04.053Z,9.46
2023-03-17T12:26:37.108Z,9.48
2023-03-17T12:29:04.948Z,9.53
2023-03-17T12:31:37.262Z,9.50
2023-03-17T12:34:21.603Z,9.48
2023-03-17T12:36:49.491Z,9.48
2023-03-17T12:39:33.326Z,9.49
2023-03-17T12:42:06.937Z,9.49
2023-03-17T12:44:50.487Z,9.49
2023-03-17T12:47:21.202Z,9.44
2023-03-17T12:50:05.822Z,9.40
2023-03-17T12:52:39.413Z,9.40
2023-03-17T12:55:12.051Z,9.42
2023-03-17T12:57:41.540Z,9.43
2023-03-17T13:00:35.854Z,9.56
2023-03-17T13:03:12.104Z,9.86
2023-03-17T13:05:45.093Z,10.21
2023-03-17T13:08:16.717Z,10.75
2023-03-17T13:10:47.999Z,11.56
2023-03-17T13:13:31.646Z,12.48
2023-03-17T13:16:00.276Z,13.48
2023-03-17T13:18:34.004Z,14.32
2023-03-17T13:21:02.161Z,15.19
2023-03-17T13:23:50.806Z,15.96
2023-03-17T13:26:20.968Z,16.80
2023-03-17T13:28:50.160Z,17.64
2023-03-17T13:31:20.979Z,18.28
2023-03-17T13:33:53.109Z,18.68
2023-03-17T13:36:21.173Z,19.03
2023-03-17T13:39:20.065Z,19.53
2023-03-17T13:42:01.080Z,19.99
2023-03-17T13:44:33.387Z,20.26
2023-03-17T13:47:17.331Z,20.54
2023-03-17T13:49:47.161Z,20.85
2023-03-17T13:52:16.229Z,20.84
2023-03-17T13:54:49.820Z,20.95
2023-03-17T13:57:26.238Z,20.91
2023-03-17T14:00:11.225Z,20.81
2023-03-17T14:02:39.668Z,20.70
2023-03-17T14:05:08.660Z,20.78
2023-03-17T14:07:42.803Z,21.26
2023-03-17T14:10:19.122Z,21.30
2023-03-17T14:12:51.881Z,21.05
2023-03-17T14:15:22.646Z,21.61
2023-03-17T14:17:52.277Z,22.34
2023-03-17T14:20:24.618Z,22.75
2023-03-17T14:22:57.337Z,22.93
2023-03-17T14:25:26.530Z,22.33
2023-03-17T14:27:56.794Z,21.32
2023-03-17T14:30:26.440Z,20.84
2023-03-17T14:33:06.489Z,20.31
2023-03-17T14:35:38.899Z,20.22
2023-03-17T14:38:18.735Z,20.12
2023-03-17T14:40:46.488Z,20.09
2023-03-17T14:43:14.816Z,20.08
2023-03-17T14:45:43.043Z,20.16
2023-03-17T14:48:14.820Z,20.23
2023-03-17T14:51:05.084Z,19.92
2023-03-17T14:53:39.297Z,18.80
2023-03-17T14:56:07.270Z,17.48
2023-03-17T14:58:44.625Z,16.28
2023-03-17T15:01:17.176Z,15.24
2023-03-17T15:04:01.815Z,14.62
2023-03-17T15:06:30.362Z,14.27
2023-03-17T15:08:59.376Z,13.68
2023-03-17T15:11:28.642Z,13.09
2023-03-17T15:14:03.716Z,12.64
2023-03-17T15:16:34.372Z,12.40
2023-03-17T15:19:27.665Z,12.33
2023-03-17T15:21:59.714Z,12.30
2023-03-17T15:24:44.056Z,12.21
2023-03-17T15:27:16.015Z,12.21
2023-03-17T15:29:44.268Z,11.94
2023-03-17T15:32:16.586Z,11.62
2023-03-17T15:34:44.255Z,11.36
2023-03-17T15:37:19.690Z,11.12
2023-03-17T15:39:48.299Z,10.86
2023-03-17T15:42:19.264Z,10.68
2023-03-17T15:44:47.099Z,10.67
2023-03-17T15:47:16.599Z,10.55
2023-03-17T15:49:45.039Z,10.39
2023-03-17T15:52:25.987Z,10.20
2023-03-17T15:54:58.335Z,10.00
2023-03-17T15:57:27.252Z,9.88
2023-03-17T15:59:54.993Z,9.69
2023-03-17T16:02:38.650Z,9.52
2023-03-17T16:05:22.624Z,9.37
2023-03-17T16:07:50.227Z,9.18
2023-03-17T16:10:23.135Z,9.02
2023-03-17T16:12:51.203Z,8.83
2023-03-17T16:15:35.135Z,8.67
2023-03-17T16:18:05.115Z,8.52
2023-03-17T16:20:48.944Z,8.35
2023-03-17T16:23:18.086Z,8.15
2023-03-17T16:25:46.309Z,8.00
2023-03-17T16:28:18.538Z,7.85
2023-03-17T16:30:47.341Z,7.68
2023-03-17T16:33:16.713Z,7.51
2023-03-17T16:35:44.804Z,7.36
2023-03-17T16:38:13.848Z,7.22
2023-03-17T16:40:41.719Z,7.07
2023-03-17T16:43:24.998Z,6.93
2023-03-17T16:45:54.522Z,6.78
2023-03-17T16:48:22.422Z,6.64
2023-03-17T16:50:50.819Z,6.51
2023-03-17T16:53:18.484Z,6.38
2023-03-17T16:55:46.195Z,6.27
2023-03-17T16:58:15.555Z,6.15
2023-03-17T17:00:43.261Z,6.04
2023-03-17T17:03:11.205Z,5.95
2023-03-17T17:05:39.042Z,5.85
2023-03-17T17:08:06.716Z,5.76
2023-03-17T17:10:35.535Z,5.67
2023-03-17T17:13:05.858Z,5.59
2023-03-17T17:15:36.362Z,5.53
2023-03-17T17:18:08.222Z,5.46
2023-03-17T17:20:40.516Z,5.39
2023-03-17T17:23:12.782Z,5.31
2023-03-17T17:25:41.213Z,5.24
2023-03-17T17:28:09.315Z,5.17
2023-03-17T17:30:37.208Z,5.11
2023-03-17T17:33:05.227Z,5.06
2023-03-17T17:35:33.390Z,5.01
2023-03-17T17:38:02.147Z,4.96
2023-03-17T17:40:30.941Z,4.92
2023-03-17T17:42:59.274Z,4.89
2023-03-17T17:45:26.967Z,4.86
2023-03-17T17:47:54.636Z,4.83
2023-03-17T17:50:28.426Z,4.80
2023-03-17T17:53:02.533Z,4.77
2023-03-17T17:55:30.375Z,4.74
2023-03-17T17:57:58.068Z,4.72
2023-03-17T18:00:26.038Z,4.71
2023-03-17T18:02:53.767Z,4.68
2023-03-17T18:05:21.403Z,4.65
2023-03-17T18:07:49.269Z,4.63
2023-03-17T18:10:19.569Z,4.61
2023-03-17T18:12:47.231Z,4.59
2023-03-17T18:15:15.073Z,4.57
2023-03-17T18:17:43.559Z,4.56
2023-03-17T18:20:12.876Z,4.55
2023-03-17T18:22:40.864Z,4.53
2023-03-17T18:25:10.131Z,4.52
2023-03-17T18:27:38.504Z,4.52
2023-03-17T18:30:08.525Z,4.51
2023-03-17T18:32:37.131Z,4.50
2023-03-17T18:35:07.959Z,4.48
2023-03-17T18:37:36.336Z,4.47
2023-03-17T18:40:14.455Z,4.46
2023-03-17T18:42:44.152Z,4.45
2023-03-17T18:45:12.397Z,4.43
2023-03-17T18:47:41.588Z,4.42
2023-03-17T18:50:11.652Z,4.42
2023-03-17T18:52:41.070Z,4.40
2023-03-17T18:55:10.062Z,4.38
2023-03-17T18:57:37.723Z,4.36
2023-03-17T19:00:06.288Z,4.32
2023-03-17T19:02:34.499Z,4.30
2023-03-17T19:05:02.496Z,4.27
2023-03-17T19:07:30.514Z,4.25
2023-03-17T19:09:59.149Z,4.25
2023-03-17T19:12:26.814Z,4.22
2023-03-17T19:14:54.834Z,4.20
2023-03-17T19:17:22.728Z,4.20
2023-03-17T19:19:50.484Z,4.19
2023-03-17T19:22:18.578Z,4.18
2023-03-17T19:24:47.851Z,4.17
2023-03-17T19:27:16.174Z,4.15
2023-03-17T19:29:43.913Z,4.14
2023-03-17T19:32:11.519Z,4.12
2023-03-17T19:34:39.202Z,4.12
2023-03-17T19:37:06.883Z,4.12
2023-03-17T19:39:34.575Z,4.12
2023-03-17T19:42:02.166Z,4.12
2023-03-17T19:44:29.865Z,4.11
2023-03-17T19:46:57.549Z,4.09
2023-03-17T19:49:26.121Z,4.09
2023-03-17T19:51:54.102Z,4.08
2023-03-17T19:54:23.413Z,4.07
2023-03-17T19:56:51.753Z,4.07
2023-03-17T19:59:19.850Z,4.06
2023-03-17T20:01:48.999Z,4.04
2023-03-17T20:04:21.810Z,4.02
2023-03-17T20:06:55.123Z,3.99
2023-03-17T20:09:24.644Z,3.98
2023-03-17T20:11:56.484Z,3.96
2023-03-17T20:14:24.191Z,3.95
2023-03-17T20:16:53.343Z,3.94
2023-03-17T20:19:21.424Z,3.92
2023-03-17T20:21:49.053Z,3.90
2023-03-17T20:24:17.450Z,3.88
2023-03-17T20:26:45.373Z,3.86
2023-03-17T20:29:14.227Z,3.82
2023-03-17T20:31:42.614Z,3.79
2023-03-17T20:34:11.617Z,3.76
2023-03-17T20:36:42.396Z,3.74
2023-03-17T20:39:14.748Z,3.73
2023-03-17T20:41:42.480Z,3.72
2023-03-17T20:44:10.149Z,3.72
2023-03-17T20:46:38.895Z,3.70
2023-03-17T20:49:07.398Z,3.69
2023-03-17T20:51:35.463Z,3.67
2023-03-17T20:54:03.673Z,3.67
2023-03-17T20:56:33.769Z,3.65
2023-03-17T20:59:04.949Z,3.65
2023-03-17T21:01:33.878Z,3.63
2023-03-17T21:04:01.691Z,3.62
2023-03-17T21:06:29.400Z,3.61
2023-03-17T21:08:57.713Z,3.60
2023-03-17T21:11:26.712Z,3.60
2023-03-17T21:13:54.329Z,3.60
2023-03-17T21:16:25.107Z,3.58
2023-03-17T21:18:53.072Z,3.57
2023-03-17T21:21:21.599Z,3.55
2023-03-17T21:23:49.277Z,3.55
2023-03-17T21:26:18.322Z,3.54
2023-03-17T21:28:46.626Z,3.54
2023-03-17T21:31:15.998Z,3.53
2023-03-17T21:33:44.376Z,3.52
2023-03-17T21:36:12.267Z,3.52
2023-03-17T21:38:39.996Z,3.51
2023-03-17T21:41:23.612Z,3.49
2023-03-17T21:43:51.272Z,3.47
2023-03-17T21:46:18.919Z,3.46
2023-03-17T21:48:46.529Z,3.45
2023-03-17T21:51:14.156Z,3.43
2023-03-17T21:53:41.804Z,3.42
2023-03-17T21:56:12.334Z,3.41
2023-03-17T21:58:40.712Z,3.40
2023-03-17T22:01:09.367Z,3.37
2023-03-17T22:03:39.450Z,3.35
2023-03-17T22:06:07.889Z,3.34
2023-03-17T22:08:35.728Z,3.34
2023-03-17T22:11:07.453Z,3.33
2023-03-17T22:13:35.346Z,3.32
2023-03-17T22:16:04.253Z,3.31
2023-03-17T22:18:32.352Z,3.29
2023-03-17T22:21:00.161Z,3.27
2023-03-17T22:23:28.983Z,3.25
2023-03-17T22:25:57.389Z,3.23
2023-03-17T22:28:25.082Z,3.23
2023-03-17T22:30:52.700Z,3.20
2023-03-17T22:33:20.289Z,3.19
2023-03-17T22:35:48.134Z,3.19
2023-03-17T22:38:15.880Z,3.17
2023-03-17T22:40:43.581Z,3.15
2023-03-17T22:43:12.031Z,3.14
2023-03-17T22:45:39.660Z,3.12
2023-03-17T22:48:07.254Z,3.11
2023-03-17T22:50:34.862Z,3.08
2023-03-17T22:53:02.506Z,3.07
2023-03-17T22:55:30.365Z,3.05
2023-03-17T22:57:57.940Z,3.03
2023-03-17T23:00:25.578Z,3.02
2023-03-17T23:02:53.246Z,2.99
2023-03-17T23:05:21.117Z,2.97
2023-03-17T23:07:51.068Z,2.94
2023-03-17T23:10:24.556Z,2.92
2023-03-17T23:12:52.535Z,2.90
2023-03-17T23:15:21.134Z,2.86
2023-03-17T23:17:48.919Z,2.85
2023-03-17T23:20:17.425Z,2.83
2023-03-17T23:22:45.003Z,2.82
2023-03-17T23:25:13.638Z,2.81
2023-03-17T23:27:41.742Z,2.79
2023-03-17T23:30:11.785Z,2.78
2023-03-17T23:32:40.673Z,2.76
2023-03-17T23:35:09.267Z,2.75
2023-03-17T23:37:37.229Z,2.74
2023-03-17T23:40:06.290Z,2.73
2023-03-17T23:42:33.892Z,2.72
2023-03-17T23:45:02.172Z,2.71
2023-03-17T23:47:30.009Z,2.71
2023-03-17T23:49:57.706Z,2.71
2023-03-17T23:52:25.642Z,2.70
2023-03-17T23:54:53.333Z,2.69
2023-03-17T23:57:21.476Z,2.67
2023-03-17T23:59:49.086Z,2.66
